createdAt,value
2023-03-17T00:01:56.182Z,99108.84
2023-03-17T00:04:24.724Z,99110.75
2023-03-17T00:06:53.274Z,99112.72
2023-03-17T00:09:21.072Z,99111.16
2023-03-17T00:11:49.213Z,99117.41
2023-03-17T00:14:16.899Z,99122.16
2023-03-17T00:16:48.874Z,99111.81
2023-03-17T00:19:36.587Z,99113.78
2023-03-17T00:22:06.350Z,99110.38
2023-03-17T00:24:33.901Z,99116.69
2023-03-17T00:27:01.231Z,99109.94
2023-03-17T00:29:28.228Z,99116.34
2023-03-17T00:31:57.792Z,99114.69
2023-03-17T00:34:25.158Z,99107.84
2023-03-17T00:36:52.204Z,99112.53
2023-03-17T00:39:19.295Z,99117.84
2023-03-17T00:44:13.880Z,99115.59
2023-03-17T00:46:42.087Z,99119.16
2023-03-17T00:49:23.880Z,99116.66
2023-03-17T00:51:51.275Z,99121.38
2023-03-17T00:54:20.023Z,99109.09
2023-03-17T00:56:48.512Z,99105.72
2023-03-17T00:59:41.352Z,99114.63
2023-03-17T01:02:12.063Z,99108.63
2023-03-17T01:04:39.964Z,99109.63
2023-03-17T01:07:07.796Z,99105.44
2023-03-17T01:09:35.207Z,99104.59
2023-03-17T01:12:02.086Z,99109.88
2023-03-17T01:14:29.466Z,99111.78
2023-03-17T01:16:56.338Z,99112.78
2023-03-17T01:19:23.212Z,99120.81
2023-03-17T01:21:50.527Z,99115.66
2023-03-17T01:24:17.312Z,99124.72
2023-03-17T01:26:44.874Z,99120.38
2023-03-17T01:29:12.304Z,99123.16
2023-03-17T01:31:39.504Z,99117.88
2023-03-17T01:34:06.538Z,99116.16
2023-03-17T01:36:34.454Z,99122.31
2023-03-17T01:39:01.728Z,99117.16
2023-03-17T01:41:28.598Z,99118.97
2023-03-17T01:43:55.436Z,99123.41
2023-03-17T01:46:40.460Z,99125.22
2023-03-17T01:49:15.959Z,99119.91
2023-03-17T01:51:51.985Z,99122.69
2023-03-17T01:54:24.890Z,99114.75
2023-03-17T01:56:54.270Z,99121.84
2023-03-17T01:59:28.856Z,99119.22
2023-03-17T02:02:03.145Z,99119.22
2023-03-17T02:04:30.621Z,99124.50
2023-03-17T02:06:59.073Z,99118.38
2023-03-17T02:09:27.817Z,99120.06
2023-03-17T02:11:56.854Z,99118.38
2023-03-17T02:14:23.971Z,99114.75
2023-03-17T02:16:50.924Z,99119.34
2023-03-17T02:19:17.841Z,99124.63
2023-03-17T02:21:47.918Z,99115.72
2023-03-17T02:24:26.797Z,99109.56
2023-03-17T02:26:55.908Z,99112.22
2023-03-17T02:29:24.132Z,99112.22
2023-03-17T02:31:51.241Z,99113.06
2023-03-17T02:34:18.540Z,99115.72
2023-03-17T02:36:46.646Z,99116.56
2023-03-17T02:39:13.792Z,99116.56
2023-03-17T02:41:40.877Z,99114.75
2023-03-17T02:44:08.142Z,99113.06
2023-03-17T02:46:34.991Z,99113.06
2023-03-17T02:49:02.597Z,99109.47
2023-03-17T02:51:29.611Z,99111.13
2023-03-17T02:53:56.471Z,99112.97
2023-03-17T02:56:23.349Z,99118.13
2023-03-17T02:58:50.232Z,99116.31
2023-03-17T03:01:18.539Z,99114.38
2023-03-17T03:03:45.385Z,99115.31
2023-03-17T03:06:12.218Z,99119.81
2023-03-17T03:08:39.092Z,99119.81
2023-03-17T03:11:06.443Z,99125.09
2023-03-17T03:13:33.340Z,99121.47
2023-03-17T03:16:00.612Z,99128.44
2023-03-17T03:18:27.563Z,99123.84
2023-03-17T03:20:54.393Z,99128.19
2023-03-17T03:23:21.295Z,99130.09
2023-03-17T03:25:48.165Z,99131.69
2023-03-17T03:28:15.095Z,99136.00
2023-03-17T03:30:42.688Z,99133.50
2023-03-17T03:33:11.687Z,99135.16
2023-03-17T03:35:38.880Z,99134.06
2023-03-17T03:38:06.598Z,99140.19
2023-03-17T03:40:34.087Z,99143.53
2023-03-17T03:43:07.497Z,99136.59
2023-03-17T03:45:39.840Z,99139.25
2023-03-17T03:48:07.126Z,99141.88
2023-03-17T03:50:34.230Z,99138.25
2023-03-17T03:53:01.109Z,99143.44
2023-03-17T03:55:27.967Z,99138.25
2023-03-17T03:57:54.924Z,99141.63
2023-03-17T04:00:22.329Z,99141.50
2023-03-17T04:02:49.263Z,99148.59
2023-03-17T04:05:18.775Z,99147.63
2023-03-17T04:07:46.776Z,99144.97
2023-03-17T04:10:15.663Z,99145.84
2023-03-17T04:12:43.498Z,99142.19
2023-03-17T04:15:14.101Z,99147.38
2023-03-17T04:17:41.420Z,99150.72
2023-03-17T04:20:09.172Z,99146.41
2023-03-17T04:22:36.326Z,99148.22
2023-03-17T04:25:03.474Z,99147.13
2023-03-17T04:27:30.278Z,99148.09
2023-03-17T04:29:57.616Z,99150.72
2023-03-17T04:32:27.066Z,99156.72
2023-03-17T04:34:54.140Z,99161.91
2023-03-17T04:37:21.077Z,99158.41
2023-03-17T04:39:47.904Z,99158.41
2023-03-17T04:42:14.911Z,99159.28
2023-03-17T04:44:43.199Z,99162.63
2023-03-17T04:47:10.164Z,99154.81
2023-03-17T04:49:37.151Z,99159.03
2023-03-17T04:52:04.150Z,99161.53
2023-03-17T04:54:31.089Z,99160.69
2023-03-17T04:56:58.188Z,99154.44
2023-03-17T04:59:25.076Z,99153.47
2023-03-17T05:01:51.890Z,99156.00
2023-03-17T05:04:30.787Z,99159.50
2023-03-17T05:06:58.982Z,99159.63
2023-03-17T05:09:27.511Z,99161.06
2023-03-17T05:11:54.831Z,99152.50
2023-03-17T05:14:21.652Z,99160.47
2023-03-17T05:16:49.668Z,99169.25
2023-03-17T05:19:17.796Z,99167.31
2023-03-17T05:21:44.926Z,99169.94
2023-03-17T05:24:11.938Z,99179.69
2023-03-17T05:26:39.562Z,99176.09
2023-03-17T05:29:06.390Z,99185.59
2023-03-17T05:31:33.271Z,99185.72
2023-03-17T05:34:00.646Z,99180.44
2023-03-17T05:36:27.533Z,99185.59
2023-03-17T05:38:54.670Z,99188.94
2023-03-17T05:41:21.944Z,99194.22
2023-03-17T05:43:48.784Z,99193.38
2023-03-17T05:46:16.124Z,99195.06
2023-03-17T05:48:43.598Z,99194.94
2023-03-17T05:51:10.830Z,99195.06
2023-03-17T05:53:37.731Z,99199.28
2023-03-17T05:56:04.726Z,99198.31
2023-03-17T05:58:31.817Z,99200.97
2023-03-17T06:00:58.820Z,99207.13
2023-03-17T06:03:25.799Z,99204.06
2023-03-17T06:05:52.769Z,99206.25
2023-03-17T06:08:19.828Z,99207.13
2023-03-17T06:10:48.092Z,99207.13
2023-03-17T06:13:15.724Z,99200.22
2023-03-17T06:15:43.474Z,99209.88
2023-03-17T06:18:10.408Z,99211.31
2023-03-17T06:20:37.456Z,99217.88
2023-03-17T06:23:05.843Z,99221.94
2023-03-17T06:25:36.351Z,99219.97
2023-03-17T06:28:05.833Z,99232.41
2023-03-17T06:30:34.693Z,99231.91
2023-03-17T06:33:03.060Z,99237.66
2023-03-17T06:35:31.409Z,99248.72
2023-03-17T06:37:58.579Z,99246.78
2023-03-17T06:40:25.443Z,99252.66
2023-03-17T06:42:52.561Z,99258.53
2023-03-17T06:45:19.414Z,99255.91
2023-03-17T06:47:46.620Z,99261.91
2023-03-17T06:50:13.674Z,99259.94
2023-03-17T06:52:41.167Z,99262.34
2023-03-17T06:55:09.083Z,99254.13
2023-03-17T06:57:36.751Z,99258.22
2023-03-17T07:00:08.953Z,99261.56
2023-03-17T07:02:36.233Z,99259.38
2023-03-17T07:05:04.802Z,99269.97
2023-03-17T07:07:31.873Z,99264.75
2023-03-17T07:09:58.950Z,99270.53
2023-03-17T07:12:26.361Z,99270.94
2023-03-17T07:14:53.361Z,99277.22
2023-03-17T07:17:20.607Z,99279.88
2023-03-17T07:19:47.537Z,99277.94
2023-03-17T07:22:14.760Z,99278.03
2023-03-17T07:24:47.838Z,99282.38
2023-03-17T07:27:15.905Z,99282.38
2023-03-17T07:29:43.041Z,99284.13
2023-03-17T07:32:10.659Z,99282.47
2023-03-17T07:34:38.083Z,99286.13
2023-03-17T07:37:07.201Z,99289.47
2023-03-17T07:39:34.330Z,99286.13
2023-03-17T07:42:01.231Z,99291.22
2023-03-17T07:44:29.122Z,99296.06
2023-03-17T07:46:56.864Z,99296.28
2023-03-17T07:49:40.068Z,99299.91
2023-03-17T07:52:09.705Z,99305.44
2023-03-17T07:54:37.953Z,99305.59
2023-03-17T07:57:07.954Z,99304.03
2023-03-17T07:59:34.959Z,99306.69
2023-03-17T08:02:02.259Z,99305.69
2023-03-17T08:04:29.495Z,99311.94
2023-03-17T08:06:57.639Z,99303.94
2023-03-17T08:09:24.992Z,99313.78
2023-03-17T08:11:52.030Z,99316.38
2023-03-17T08:14:19.504Z,99309.47
2023-03-17T08:16:46.603Z,99318.84
2023-03-17T08:19:13.678Z,99323.19
2023-03-17T08:21:40.631Z,99324.75
2023-03-17T08:24:07.791Z,99332.44
2023-03-17T08:26:34.807Z,99341.09
2023-03-17T08:29:01.848Z,99342.75
2023-03-17T08:31:29.118Z,99348.66
2023-03-17T08:33:57.492Z,99349.34
2023-03-17T08:36:25.040Z,99350.91
2023-03-17T08:38:52.852Z,99351.50
2023-03-17T08:41:23.036Z,99358.59
2023-03-17T08:43:51.955Z,99354.84
2023-03-17T08:46:32.493Z,99354.75
2023-03-17T08:49:00.262Z,99360.91
2023-03-17T08:51:29.517Z,99359.91
2023-03-17T08:53:59.023Z,99358.81
2023-03-17T08:56:27.334Z,99365.81
2023-03-17T08:58:54.786Z,99361.09
2023-03-17T09:01:23.567Z,99363.59
2023-03-17T09:03:53.861Z,99370.34
2023-03-17T09:06:21.740Z,99374.53
2023-03-17T09:08:55.634Z,99378.00
2023-03-17T09:11:29.138Z,99375.34
2023-03-17T09:13:56.830Z,99379.00
2023-03-17T09:16:24.375Z,99377.06
2023-03-17T09:18:51.882Z,99382.00
2023-03-17T09:21:18.924Z,99378.22
2023-03-17T09:23:47.123Z,99393.19
2023-03-17T09:26:14.179Z,99389.59
2023-03-17T09:28:41.373Z,99402.56
2023-03-17T09:31:11.958Z,99398.25
2023-03-17T09:33:41.094Z,99399.91
2023-03-17T09:36:09.857Z,99402.56
2023-03-17T09:38:37.684Z,99401.59
2023-03-17T09:41:18.761Z,99410.25
2023-03-17T09:43:55.097Z,99408.44
2023-03-17T09:46:36.522Z,99406.50
2023-03-17T09:49:14.974Z,99412.66
2023-03-17T09:51:45.450Z,99406.75
2023-03-17T09:54:15.805Z,99403.84
2023-03-17T09:56:48.513Z,99417.44
2023-03-17T09:59:48.788Z,99423.72
2023-03-17T10:02:29.633Z,99421.06
2023-03-17T10:04:57.792Z,99428.75
2023-03-17T10:07:42.582Z,99431.41
2023-03-17T10:10:20.162Z,99434.06
2023-03-17T10:12:54.750Z,99427.81
2023-03-17T10:15:32.812Z,99434.91
2023-03-17T10:18:00.284Z,99444.69
2023-03-17T10:20:36.952Z,99437.44
2023-03-17T10:23:12.187Z,99434.78
2023-03-17T10:25:39.800Z,99440.94
2023-03-17T10:28:26.508Z,99443.59
2023-03-17T10:30:54.440Z,99438.28
2023-03-17T10:33:23.118Z,99432.13
2023-03-17T10:35:50.648Z,99438.16
2023-03-17T10:38:25.246Z,99442.63
2023-03-17T10:41:02.932Z,99440.81
2023-03-17T10:43:36.779Z,99443.47
2023-03-17T10:46:06.777Z,99441.78
2023-03-17T10:48:39.240Z,99447.09
2023-03-17T10:51:09.748Z,99446.13
2023-03-17T10:53:44.115Z,99448.38
2023-03-17T10:56:22.491Z,99448.91
2023-03-17T10:58:52.264Z,99443.44
2023-03-17T11:01:30.792Z,99449.38
2023-03-17T11:03:58.373Z,99456.25
2023-03-17T11:06:42.338Z,99452.91
2023-03-17T11:09:17.181Z,99455.44
2023-03-17T11:11:49.134Z,99452.16
2023-03-17T11:14:19.713Z,99459.34
2023-03-17T11:16:59.515Z,99460.09
2023-03-17T11:19:56.055Z,99464.06
2023-03-17T11:22:29.775Z,99466.63
2023-03-17T11:25:09.796Z,99461.84
2023-03-17T11:27:47.388Z,99465.69
2023-03-17T11:30:42.240Z,99470.28
2023-03-17T11:33:16.994Z,99473.19
2023-03-17T11:35:59.350Z,99473.31
2023-03-17T11:38:43.861Z,99488.47
2023-03-17T11:41:21.062Z,99482.31
2023-03-17T11:44:03.369Z,99484.97
2023-03-17T11:46:52.030Z,99481.59
2023-03-17T11:49:22.607Z,99484.25
2023-03-17T11:52:03.537Z,99488.72
2023-03-17T11:54:57.555Z,99493.31
2023-03-17T11:57:32.528Z,99497.03
2023-03-17T12:00:05.707Z,99491.97
2023-03-17T12:02:41.803Z,99489.47
2023-03-17T12:05:11.040Z,99493.06
2023-03-17T12:07:48.553Z,99493.22
2023-03-17T12:10:26.671Z,99489.72
2023-03-17T12:12:59.272Z,99499.47
2023-03-17T12:15:36.648Z,99496.94
2023-03-17T12:18:13.537Z,99496.09
2023-03-17T12:21:09.911Z,99502.34
2023-03-17T12:23:48.606Z,99498.75
2023-03-17T12:26:20.590Z,99499.69
2023-03-17T12:29:00.461Z,99492.72
2023-03-17T12:31:36.709Z,99499.69
2023-03-17T12:34:07.255Z,99496.34
2023-03-17T12:36:37.223Z,99499.84
2023-03-17T12:39:16.525Z,99496.09
2023-03-17T12:42:14.595Z,99499.06
2023-03-17T12:45:20.966Z,99498.72
2023-03-17T12:48:10.979Z,99500.91
2023-03-17T12:50:50.387Z,99505.38
2023-03-17T12:53:33.448Z,99503.66
2023-03-17T12:56:10.787Z,99505.47
2023-03-17T12:58:47.650Z,99514.16
2023-03-17T13:01:24.590Z,99504.75
2023-03-17T13:04:18.537Z,99508.50
2023-03-17T13:06:55.392Z,99509.34
2023-03-17T13:09:32.804Z,99504.75
2023-03-17T13:12:02.275Z,99499.47
2023-03-17T13:14:47.512Z,99507.63
2023-03-17T13:17:17.872Z,99507.53
2023-03-17T13:20:00.178Z,99508.00
2023-03-17T13:22:41.345Z,99507.78
2023-03-17T13:25:33.836Z,99501.38
2023-03-17T13:28:13.200Z,99500.91
2023-03-17T13:30:40.999Z,99502.34
2023-03-17T13:33:16.500Z,99495.63
2023-03-17T13:36:07.316Z,99498.97
2023-03-17T13:38:40.183Z,99493.22
2023-03-17T13:41:42.368Z,99502.81
2023-03-17T13:44:39.703Z,99495.97
2023-03-17T13:47:25.729Z,99493.69
2023-03-17T13:49:58.651Z,99496.56
2023-03-17T13:52:33.646Z,99487.19
2023-03-17T13:55:18.768Z,99500.44
2023-03-17T13:58:14.958Z,99500.22
2023-03-17T14:00:49.241Z,99492.50
2023-03-17T14:03:23.497Z,99489.72
2023-03-17T14:05:51.999Z,99494.41
2023-03-17T14:08:32.661Z,99500.69
2023-03-17T14:11:03.120Z,99498.38
2023-03-17T14:13:32.498Z,99494.16
2023-03-17T14:16:20.188Z,99494.88
2023-03-17T14:18:50.819Z,99475.38
2023-03-17T14:21:24.468Z,99488.84
2023-03-17T14:23:59.749Z,99478.84
2023-03-17T14:26:29.848Z,99485.72
2023-03-17T14:29:01.295Z,99479.56
2023-03-17T14:31:29.564Z,99477.25
2023-03-17T14:33:58.891Z,99479.66
2023-03-17T14:36:27.950Z,99487.28
2023-03-17T14:38:56.967Z,99498.38
2023-03-17T14:41:31.230Z,99487.91
2023-03-17T14:44:00.601Z,99497.41
2023-03-17T14:46:38.998Z,99491.38
2023-03-17T14:49:21.722Z,99499.81
2023-03-17T14:51:57.063Z,99502.09
2023-03-17T14:54:31.879Z,99504.81
2023-03-17T14:57:14.599Z,99517.69
2023-03-17T14:59:43.950Z,99519.38
2023-03-17T15:02:38.257Z,99515.66
2023-03-17T15:05:17.518Z,99508.19
2023-03-17T15:07:44.552Z,99526.84
2023-03-17T15:10:17.336Z,99523.09
2023-03-17T15:12:49.378Z,99528.06
2023-03-17T15:15:31.627Z,99524.00
2023-03-17T15:18:01.807Z,99515.97
2023-03-17T15:20:31.934Z,99519.22
2023-03-17T15:23:05.734Z,99531.00
2023-03-17T15:25:42.826Z,99519.19
2023-03-17T15:28:15.775Z,99533.50
2023-03-17T15:30:48.849Z,99532.16
2023-03-17T15:33:24.598Z,99538.56
2023-03-17T15:35:51.942Z,99540.97
2023-03-17T15:38:19.153Z,99542.53
2023-03-17T15:40:52.673Z,99537.63
2023-03-17T15:43:23.744Z,99539.03
2023-03-17T15:45:57.185Z,99532.63
2023-03-17T15:48:28.295Z,99538.66
2023-03-17T15:50:55.859Z,99548.78
2023-03-17T15:53:23.188Z,99539.88
2023-03-17T15:55:50.460Z,99539.88
2023-03-17T15:58:17.685Z,99533.00
2023-03-17T16:00:57.716Z,99534.66
2023-03-17T16:03:32.685Z,99541.53
2023-03-17T16:06:00.892Z,99544.91
2023-03-17T16:08:28.048Z,99543.94
2023-03-17T16:10:55.195Z,99541.28
2023-03-17T16:13:22.800Z,99551.88
2023-03-17T16:15:58.942Z,99546.59
2023-03-17T16:18:34.388Z,99548.38
2023-03-17T16:21:02.734Z,99553.34
2023-03-17T16:23:33.111Z,99554.06
2023-03-17T16:26:14.143Z,99552.72
2023-03-17T16:28:43.526Z,99563.19
2023-03-17T16:31:24.867Z,99572.13
2023-03-17T16:33:54.270Z,99566.56
2023-03-17T16:36:23.370Z,99572.69
2023-03-17T16:38:51.311Z,99588.28
2023-03-17T16:41:24.430Z,99587.19
2023-03-17T16:44:00.358Z,99594.91
2023-03-17T16:46:34.412Z,99584.91
2023-03-17T16:49:02.304Z,99590.78
2023-03-17T16:51:29.309Z,99587.19
2023-03-17T16:53:56.450Z,99590.06
2023-03-17T16:56:25.420Z,99590.41
2023-03-17T16:58:52.528Z,99593.69
2023-03-17T17:01:25.628Z,99589.69
2023-03-17T17:03:52.653Z,99583.03
2023-03-17T17:06:21.310Z,99584.44
2023-03-17T17:08:49.909Z,99585.91
2023-03-17T17:11:18.170Z,99590.44
2023-03-17T17:13:47.180Z,99591.75
2023-03-17T17:16:17.512Z,99595.84
2023-03-17T17:18:44.556Z,99593.63
2023-03-17T17:21:11.693Z,99592.16
2023-03-17T17:23:39.160Z,99590.94
2023-03-17T17:26:06.312Z,99592.34
2023-03-17T17:28:33.606Z,99594.50
2023-03-17T17:31:00.661Z,99591.34
2023-03-17T17:33:28.237Z,99601.41
2023-03-17T17:35:55.837Z,99606.22
2023-03-17T17:38:29.078Z,99604.88
2023-03-17T17:40:58.638Z,99604.38
2023-03-17T17:43:26.076Z,99605.53
2023-03-17T17:45:55.649Z,99602.34
2023-03-17T17:48:26.043Z,99610.63
2023-03-17T17:50:54.539Z,99612.91
2023-03-17T17:53:21.798Z,99618.97
2023-03-17T17:55:50.058Z,99627.13
2023-03-17T17:58:19.709Z,99629.41
2023-03-17T18:00:47.190Z,99631.66
2023-03-17T18:03:14.393Z,99635.59
2023-03-17T18:05:41.874Z,99640.75
2023-03-17T18:08:09.458Z,99639.66
2023-03-17T18:10:36.587Z,99634.06
2023-03-17T18:13:03.507Z,99646.00
2023-03-17T18:15:30.444Z,99640.25
2023-03-17T18:17:57.626Z,99638.19
2023-03-17T18:20:26.066Z,99646.88
2023-03-17T18:22:53.338Z,99650.38
2023-03-17T18:25:20.896Z,99649.53
2023-03-17T18:27:48.297Z,99657.50
2023-03-17T18:30:23.582Z,99658.25
2023-03-17T18:32:55.228Z,99663.25
2023-03-17T18:35:23.812Z,99663.00
2023-03-17T18:37:52.084Z,99661.13
2023-03-17T18:40:20.114Z,99669.38
2023-03-17T18:42:47.991Z,99669.00
2023-03-17T18:45:15.612Z,99668.84
2023-03-17T18:47:42.952Z,99668.03
2023-03-17T18:50:12.884Z,99671.66
2023-03-17T18:52:41.972Z,99668.47
2023-03-17T18:55:11.594Z,99672.41
2023-03-17T18:57:38.755Z,99669.31
2023-03-17T19:00:09.031Z,99676.34
2023-03-17T19:02:36.261Z,99666.50
2023-03-17T19:05:03.787Z,99680.53
2023-03-17T19:07:30.938Z,99674.66
2023-03-17T19:09:58.201Z,99673.09
2023-03-17T19:12:25.746Z,99673.25
2023-03-17T19:14:53.464Z,99683.91
2023-03-17T19:17:20.536Z,99686.94
2023-03-17T19:19:47.656Z,99687.75
2023-03-17T19:22:14.692Z,99693.16
2023-03-17T19:24:42.282Z,99695.44
2023-03-17T19:27:09.625Z,99696.72
2023-03-17T19:29:37.010Z,99689.16
2023-03-17T19:32:04.527Z,99692.53
2023-03-17T19:34:32.093Z,99689.88
2023-03-17T19:37:03.546Z,99695.19
2023-03-17T19:39:31.876Z,99698.16
2023-03-17T19:42:02.689Z,99703.59
2023-03-17T19:44:30.138Z,99702.38
2023-03-17T19:46:57.760Z,99710.78
2023-03-17T19:49:26.185Z,99704.34
2023-03-17T19:51:53.835Z,99702.13
2023-03-17T19:54:23.582Z,99697.38
2023-03-17T19:56:50.856Z,99697.91
2023-03-17T19:59:20.275Z,99700.19
2023-03-17T20:01:49.089Z,99703.53
2023-03-17T20:04:21.334Z,99706.06
2023-03-17T20:06:48.758Z,99707.59
2023-03-17T20:09:17.345Z,99710.00
2023-03-17T20:11:44.592Z,99707.75
2023-03-17T20:14:11.832Z,99712.81
2023-03-17T20:16:41.307Z,99712.81
2023-03-17T20:19:09.064Z,99716.16
2023-03-17T20:21:37.742Z,99713.38
2023-03-17T20:24:05.828Z,99708.91
2023-03-17T20:26:36.591Z,99709.19
2023-03-17T20:29:03.925Z,99718.72
2023-03-17T20:31:32.607Z,99717.84
2023-03-17T20:34:00.409Z,99721.22
2023-03-17T20:36:27.952Z,99723.75
2023-03-17T20:38:55.375Z,99725.56
2023-03-17T20:41:22.899Z,99718.72
2023-03-17T20:43:51.348Z,99726.69
2023-03-17T20:46:21.885Z,99724.03
2023-03-17T20:48:49.600Z,99735.53
2023-03-17T20:51:21.049Z,99733.41
2023-03-17T20:53:51.681Z,99729.06
2023-03-17T20:56:22.689Z,99734.38
2023-03-17T20:58:51.221Z,99729.75
2023-03-17T21:01:21.613Z,99739.56
2023-03-17T21:03:49.033Z,99739.13
2023-03-17T21:06:17.221Z,99744.72
2023-03-17T21:08:46.697Z,99744.88
2023-03-17T21:11:19.529Z,99746.41
2023-03-17T21:13:50.134Z,99746.69
2023-03-17T21:16:20.382Z,99747.97
2023-03-17T21:18:48.693Z,99752.44
2023-03-17T21:21:17.811Z,99747.66
2023-03-17T21:23:45.353Z,99754.84
2023-03-17T21:26:16.261Z,99757.66
2023-03-17T21:28:44.140Z,99753.16
2023-03-17T21:31:13.888Z,99761.88
2023-03-17T21:33:42.675Z,99757.94
2023-03-17T21:36:10.274Z,99748.69
2023-03-17T21:38:38.113Z,99756.69
2023-03-17T21:41:24.199Z,99759.94
2023-03-17T21:43:51.365Z,99757.28
2023-03-17T21:46:18.701Z,99759.94
2023-03-17T21:48:48.791Z,99758.81
2023-03-17T21:51:17.182Z,99750.66
2023-03-17T21:53:46.441Z,99756.00
2023-03-17T21:56:15.567Z,99759.66
2023-03-17T21:58:43.393Z,99755.16
2023-03-17T22:01:17.078Z,99757.81
2023-03-17T22:03:45.691Z,99757.66
2023-03-17T22:06:16.109Z,99763.63
2023-03-17T22:08:44.863Z,99758.16
2023-03-17T22:11:17.630Z,99759.25
2023-03-17T22:13:46.016Z,99761.72
2023-03-17T22:16:15.025Z,99751.88
2023-03-17T22:18:42.526Z,99755.78
2023-03-17T22:21:12.942Z,99758.13
2023-03-17T22:23:42.589Z,99751.25
2023-03-17T22:26:13.731Z,99761.56
2023-03-17T22:28:41.373Z,99757.91
2023-03-17T22:31:17.621Z,99759.59
2023-03-17T22:33:45.973Z,99761.81
2023-03-17T22:36:13.361Z,99762.31
2023-03-17T22:38:41.095Z,99764.28
2023-03-17T22:41:12.494Z,99775.41
2023-03-17T22:43:40.622Z,99773.16
2023-03-17T22:46:10.293Z,99768.22
2023-03-17T22:48:37.630Z,99774.78
2023-03-17T22:51:11.590Z,99778.66
2023-03-17T22:53:39.873Z,99779.75
2023-03-17T22:56:08.387Z,99781.84
2023-03-17T22:58:36.132Z,99784.75
2023-03-17T23:01:04.169Z,99786.13
2023-03-17T23:03:32.263Z,99792.53
2023-03-17T23:06:00.852Z,99790.38
2023-03-17T23:08:29.960Z,99802.09
2023-03-17T23:11:00.503Z,99801.66
2023-03-17T23:13:29.002Z,99801.03
2023-03-17T23:15:56.876Z,99802.16
2023-03-17T23:18:24.322Z,99805.19
2023-03-17T23:20:52.476Z,99801.81
2023-03-17T23:23:20.368Z,99797.81
2023-03-17T23:25:47.835Z,99802.66
2023-03-17T23:28:15.953Z,99799.16
2023-03-17T23:30:46.165Z,99801.09
2023-03-17T23:33:14.669Z,99796.03
2023-03-17T23:35:41.680Z,99806.06
2023-03-17T23:38:09.124Z,99805.44
2023-03-17T23:40:36.404Z,99799.56
2023-03-17T23:43:05.730Z,99801.63
2023-03-17T23:45:34.180Z,99805.38
2023-03-17T23:48:01.381Z,99810.78
2023-03-17T23:50:28.278Z,99804.03
2023-03-17T23:52:55.249Z,99801.63
2023-03-17T23:55:22.209Z,99798.38
2023-03-17T23:57:50.201Z,99809.97
